Time;durP1;ratioP1;P1;durP2;ratioP2;P2;SDS_P1;SDS_P2;PMS_P1;PMS_P2;Temp;Humidity;BMP_temperature;BMP_pressure;BME280_temperature;BME280_humidity;BME280_pressure;Samples;Min_cycle;Max_cycle;Signal;HPM_P1;HPM_P2
2022/06/13 00:01:31;;;;;;;8.30;5.10;;;;;;;16.73;72.03;98468.30;106791;1274;23327;-88
2022/06/13 00:03:59;;;;;;;6.40;5.70;;;;;;;16.70;71.95;98464.45;106662;1274;138116;-86
2022/06/13 00:06:27;;;;;;;9.20;4.90;;;;;;;16.67;72.05;98464.75;106726;1274;25657;-86
2022/06/13 00:08:54;;;;;;;9.10;5.70;;;;;;;16.63;71.96;98465.55;106712;1276;22573;-87
2022/06/13 00:11:23;;;;;;;5.40;4.90;;;;;;;16.52;71.61;98467.27;106548;1275;138112;-86
2022/06/13 00:13:53;;;;;;;6.00;5.20;;;;;;;16.30;71.55;98467.16;106393;1276;25539;-87
2022/06/13 00:16:21;;;;;;;9.10;5.50;;;;;;;16.06;71.85;98467.92;106267;1277;137965;-87
2022/06/13 00:18:49;;;;;;;8.70;5.90;;;;;;;15.92;72.50;98465.17;106574;1275;25258;-86
2022/06/13 00:21:28;;;;;;;10.50;6.40;;;;;;;15.88;73.03;98460.19;106668;1274;22592;-86
2022/06/13 00:23:55;;;;;;;7.90;6.20;;;;;;;15.86;73.55;98448.00;106402;1275;137620;-87
2022/06/13 00:26:26;;;;;;;6.80;6.00;;;;;;;15.87;73.50;98446.07;106253;1277;22773;-87
2022/06/13 00:28:55;;;;;;;5.80;5.20;;;;;;;15.89;73.68;98443.56;106605;1274;138405;-87
2022/06/13 00:31:22;;;;;;;8.40;5.90;;;;;;;15.92;73.80;98443.24;106213;1274;23286;-87
2022/06/13 00:33:50;;;;;;;8.90;6.60;;;;;;;15.94;74.16;98437.88;106463;1274;25335;-87
2022/06/13 00:36:21;;;;;;;9.10;6.60;;;;;;;15.98;73.98;98438.23;106293;1274;138150;-87
2022/06/13 00:38:48;;;;;;;8.90;6.60;;;;;;;16.02;74.52;98434.43;106147;1276;26718;-87
2022/06/13 00:41:20;;;;;;;6.80;6.00;;;;;;;16.04;74.52;98429.30;106120;1277;138309;-88
2022/06/13 00:43:48;;;;;;;7.30;6.20;;;;;;;16.03;74.65;98431.63;106355;1277;22669;-88
2022/06/13 00:46:33;;;;;;;8.50;5.90;;;;;;;15.93;74.19;98429.63;106653;1276;137990;-87
2022/06/13 00:49:39;;;;;;;8.80;6.10;;;;;;;15.70;74.06;98429.36;106373;1275;22572;-87
2022/06/13 00:52:13;;;;;;;12.80;7.30;;;;;;;15.55;74.95;98425.50;106674;1275;137555;-87
2022/06/13 00:54:43;;;;;;;7.60;6.60;;;;;;;15.53;75.42;98419.13;106696;1274;24386;-87
2022/06/13 00:57:18;;;;;;;6.90;6.20;;;;;;;15.54;75.63;98419.52;106230;1274;22798;-88
2022/06/13 00:59:49;;;;;;;7.50;5.80;;;;;;;15.56;76.01;98420.17;106166;1274;138217;-88
2022/06/13 01:02:16;;;;;;;9.00;5.60;;;;;;;15.56;75.91;98420.50;106139;1275;25441;-88
2022/06/13 01:04:43;;;;;;;6.70;6.00;;;;;;;15.57;76.07;98418.35;106391;1274;137488;-88
2022/06/13 01:07:10;;;;;;;8.20;7.00;;;;;;;15.59;75.99;98413.68;106073;1278;23068;-88
2022/06/13 01:12:28;;;;;;;7.50;6.00;;;;;;;15.60;76.04;98405.89;106366;1274;23311;-88
2022/06/13 01:14:56;;;;;;;7.70;6.60;;;;;;;15.62;76.02;98402.32;106172;1274;22605;-88
2022/06/13 01:17:41;;;;;;;7.70;6.40;;;;;;;15.66;76.04;98402.52;106139;1274;137841;-88
2022/06/13 01:20:20;;;;;;;8.20;7.20;;;;;;;15.70;76.19;98400.35;105976;1275;624217;-88
2022/06/13 01:23:36;;;;;;;8.50;7.00;;;;;;;15.71;75.97;98399.91;106320;1274;138256;-89
2022/06/13 01:26:22;;;;;;;6.90;5.90;;;;;;;15.72;76.17;98391.52;105852;1277;22563;-88
2022/06/13 01:29:06;;;;;;;7.80;6.40;;;;;;;15.62;75.18;98392.42;106798;1274;138073;-88
2022/06/13 01:32:10;;;;;;;7.20;6.30;;;;;;;15.53;75.71;98390.77;106533;1274;22548;-89
2022/06/13 01:34:43;;;;;;;8.50;7.30;;;;;;;15.53;76.27;98373.85;106359;1275;138350;-88
2022/06/13 01:37:48;;;;;;;7.90;7.00;;;;;;;15.56;76.40;98376.36;106324;1277;24945;-88
2022/06/13 01:40:56;;;;;;;7.10;5.90;;;;;;;15.60;76.42;98374.98;106082;1275;138733;-90
2022/06/13 01:43:35;;;;;;;7.50;6.80;;;;;;;15.58;76.49;98373.89;106328;1274;22608;-89
2022/06/13 01:46:27;;;;;;;7.20;6.50;;;;;;;15.44;75.81;98369.75;106289;1274;138095;-89
2022/06/13 01:49:19;;;;;;;7.50;6.80;;;;;;;15.27;76.17;98370.19;106581;1274;22560;-89
2022/06/13 01:52:04;;;;;;;8.80;7.00;;;;;;;15.23;76.78;98365.98;106476;1274;22690;-89
2022/06/13 01:54:37;;;;;;;7.60;6.90;;;;;;;15.24;77.09;98363.73;106226;1275;24264;-89
2022/06/13 01:57:11;;;;;;;9.20;7.30;;;;;;;15.23;77.18;98358.13;106842;1274;22726;-89
2022/06/13 01:59:50;;;;;;;8.20;7.30;;;;;;;15.29;77.30;98357.08;106350;1274;137413;-89
2022/06/13 02:02:54;;;;;;;7.60;6.90;;;;;;;15.34;77.20;98359.58;106206;1274;25423;-89
2022/06/13 02:05:25;;;;;;;7.20;6.30;;;;;;;15.38;77.00;98351.34;106301;1274;137911;-90
2022/06/13 02:08:04;;;;;;;7.40;5.90;;;;;;;15.42;77.08;98353.07;106448;1275;22571;-89
2022/06/13 02:10:37;;;;;;;8.10;6.10;;;;;;;15.45;76.87;98345.27;106269;1277;138410;-88
2022/06/13 02:13:09;;;;;;;9.10;6.50;;;;;;;15.47;76.86;98345.11;106633;1275;22567;-89
2022/06/13 02:15:54;;;;;;;7.40;6.50;;;;;;;15.45;76.75;98345.17;106320;1276;22563;-90
2022/06/13 02:18:33;;;;;;;9.90;7.10;;;;;;;15.30;75.53;98341.77;106395;1275;137289;-88
2022/06/13 02:21:08;;;;;;;7.30;6.20;;;;;;;15.08;75.82;98338.79;106547;1274;24362;-89
2022/06/13 02:23:40;;;;;;;8.60;5.90;;;;;;;15.00;76.24;98330.90;106342;1274;138606;-89
2022/06/13 02:26:12;;;;;;;9.40;6.10;;;;;;;14.98;76.55;98326.04;106218;1275;22700;-89
2022/06/13 02:28:48;;;;;;;6.60;6.00;;;;;;;15.01;77.15;98325.54;106473;1274;138153;-89
2022/06/13 02:31:27;;;;;;;8.30;6.20;;;;;;;15.06;77.28;98325.14;106227;1277;22771;-89
2022/06/13 02:34:09;;;;;;;6.70;6.10;;;;;;;15.09;77.33;98324.53;106136;1276;24329;-88
2022/06/13 02:36:43;;;;;;;9.30;6.10;;;;;;;15.12;77.76;98323.54;106407;1275;22567;-89
2022/06/13 02:39:26;;;;;;;8.40;5.80;;;;;;;15.14;77.54;98318.76;106430;1274;25530;-89
2022/06/13 02:42:05;;;;;;;6.80;6.00;;;;;;;15.17;77.50;98316.11;107108;1274;138367;-89
2022/06/13 02:44:51;;;;;;;7.90;6.70;;;;;;;15.18;77.67;98314.02;106615;1274;24229;-90
2022/06/13 02:47:33;;;;;;;8.00;6.10;;;;;;;15.17;76.92;98315.73;106147;1275;137513;-89
2022/06/13 02:50:10;;;;;;;5.70;5.20;;;;;;;15.05;75.99;98322.63;106220;1278;22542;-89
2022/06/13 02:52:43;;;;;;;6.20;5.60;;;;;;;14.79;75.47;98325.06;106306;1274;137996;-90
2022/06/13 02:55:14;;;;;;;8.40;5.70;;;;;;;14.41;75.65;98329.17;106230;1274;25263;-89
2022/06/13 02:58:05;;;;;;;5.80;5.20;;;;;;;14.10;76.32;98336.02;106446;1277;23137;-89
2022/06/13 03:00:40;;;;;;;8.30;6.40;;;;;;;13.94;77.21;98336.97;106366;1274;22602;-88
2022/06/13 03:03:38;;;;;;;7.20;6.50;;;;;;;13.89;78.12;98332.20;106267;1274;23118;-88
2022/06/13 03:06:26;;;;;;;6.70;6.00;;;;;;;13.92;78.79;98326.36;106259;1274;137823;-88
2022/06/13 03:09:08;;;;;;;5.70;5.20;;;;;;;14.00;79.12;98326.20;106463;1278;22557;-89
2022/06/13 03:12:02;;;;;;;6.00;5.40;;;;;;;14.08;79.26;98323.59;106705;1274;138265;-89
2022/06/13 03:14:40;;;;;;;9.00;6.70;;;;;;;14.19;79.63;98318.19;106415;1274;24267;-89
2022/06/13 03:17:15;;;;;;;6.80;6.00;;;;;;;14.32;79.91;98319.90;106616;1274;137467;-89
2022/06/13 03:20:08;;;;;;;6.50;5.90;;;;;;;14.42;80.03;98310.26;106824;1274;22620;-89
2022/06/13 03:23:01;;;;;;;6.90;6.10;;;;;;;14.57;79.76;98312.02;106206;1274;138650;-88
2022/06/13 03:25:38;;;;;;;5.90;5.10;;;;;;;14.69;79.71;98311.60;106171;1275;23883;-89
2022/06/13 03:28:14;;;;;;;8.70;5.90;;;;;;;14.81;79.57;98307.31;106331;1274;137997;-89
2022/06/13 03:30:50;;;;;;;8.80;5.80;;;;;;;14.92;79.27;98303.94;106468;1274;22578;-88
2022/06/13 03:33:40;;;;;;;6.50;5.80;;;;;;;15.00;79.18;98298.77;106571;1275;24230;-88
2022/06/13 03:36:09;;;;;;;6.60;6.00;;;;;;;15.08;79.22;98290.09;106663;1274;138314;-89
2022/06/13 03:38:41;;;;;;;;;;;;;;;15.16;79.02;98290.27;106533;1274;25352;-88
2022/06/13 03:41:15;;;;;;;5.80;5.30;;;;;;;15.25;78.94;98290.70;106886;1274;124767;-89
2022/06/13 03:44:06;;;;;;;8.60;5.70;;;;;;;15.34;78.69;98295.77;106317;1274;22593;-89
2022/06/13 03:46:56;;;;;;;7.40;6.70;;;;;;;15.41;78.24;98295.96;106258;1274;137982;-89
2022/06/13 03:49:30;;;;;;;8.30;6.70;;;;;;;15.37;77.59;98290.53;106513;1274;25361;-89
2022/06/13 03:52:00;;;;;;;7.10;6.20;;;;;;;15.35;77.90;98289.98;106291;1277;137676;-88
2022/06/13 03:54:48;;;;;;;6.90;6.20;;;;;;;15.44;78.26;98290.61;106466;1274;25374;-90
2022/06/13 03:57:24;;;;;;;10.50;5.80;;;;;;;15.55;78.41;98294.24;106501;1274;22573;-90
2022/06/13 03:59:59;;;;;;;7.20;5.80;;;;;;;15.63;78.31;98291.84;106183;1277;138461;-90
2022/06/13 04:02:32;;;;;;;6.10;5.50;;;;;;;15.64;78.56;98294.75;106324;1274;31842;-91
2022/06/13 04:05:00;;;;;;;9.50;6.10;;;;;;;15.61;78.62;98293.17;106386;1274;137534;-89
2022/06/13 04:07:32;;;;;;;8.20;6.60;;;;;;;15.56;79.48;98293.91;106452;1274;22557;-89
2022/06/13 04:10:09;;;;;;;6.90;5.40;;;;;;;15.59;79.80;98290.38;106390;1273;141116;-89
2022/06/13 04:13:02;;;;;;;6.80;5.60;;;;;;;15.74;80.29;98286.20;106426;1277;30257;-89
2022/06/13 04:16:10;;;;;;;8.50;5.90;;;;;;;15.96;80.22;98290.38;106493;1274;22567;-90
2022/06/13 04:19:22;;;;;;;11.60;6.00;;;;;;;16.22;80.07;98288.16;106378;1274;25352;-90
2022/06/13 04:22:19;;;;;;;8.90;6.10;;;;;;;16.42;79.26;98298.84;105953;1278;24297;-89
2022/06/13 04:25:10;;;;;;;9.00;7.30;;;;;;;16.58;78.50;98289.69;106487;1277;25377;-89
2022/06/13 04:28:04;;;;;;;9.20;7.10;;;;;;;16.69;78.49;98286.84;106575;1277;26262;-89
2022/06/13 04:30:34;;;;;;;8.40;6.10;;;;;;;16.80;78.83;98280.25;106642;1275;22554;-88
2022/06/13 04:33:13;;;;;;;9.40;6.30;;;;;;;16.84;78.55;98278.08;106527;1278;30711;-88
2022/06/13 04:35:42;;;;;;;7.70;5.80;;;;;;;16.95;78.10;98276.00;106583;1274;138301;-88
2022/06/13 04:38:12;;;;;;;5.60;5.10;;;;;;;17.08;77.90;98276.08;106611;1277;24278;-88
2022/06/13 04:40:44;;;;;;;5.30;4.80;;;;;;;17.22;76.05;98279.48;106581;1274;138683;-88
2022/06/13 04:43:14;;;;;;;5.10;4.70;;;;;;;17.39;74.80;98281.81;106461;1277;22740;-88
2022/06/13 04:45:58;;;;;;;5.50;5.00;;;;;;;17.53;73.95;98277.80;106603;1277;26169;-88
2022/06/13 04:48:26;;;;;;;5.20;4.70;;;;;;;17.63;73.20;98276.01;106576;1274;24468;-87
2022/06/13 04:51:07;;;;;;;6.00;4.40;;;;;;;17.73;72.87;98272.95;106573;1274;22577;-87
2022/06/13 04:54:03;;;;;;;5.10;4.30;;;;;;;17.82;72.61;98268.45;106492;1274;137568;-87
2022/06/13 04:56:33;;;;;;;7.90;5.00;;;;;;;17.95;72.42;98266.58;106652;1274;22564;-88
2022/06/13 04:59:04;;;;;;;6.50;4.10;;;;;;;18.02;72.25;98260.66;106575;1277;137576;-87
2022/06/13 05:01:51;;;;;;;3.90;3.50;;;;;;;18.12;72.05;98252.91;106441;1277;24231;-87
2022/06/13 05:04:24;;;;;;;4.20;3.60;;;;;;;18.23;70.04;98251.13;106945;1274;137850;-88
2022/06/13 05:06:54;;;;;;;3.60;3.30;;;;;;;18.33;69.36;98250.16;106543;1277;25558;-87
2022/06/13 05:09:30;;;;;;;5.20;3.90;;;;;;;18.39;68.95;98243.88;106696;1275;24297;-87
2022/06/13 05:12:17;;;;;;;4.10;3.70;;;;;;;18.50;69.00;98242.20;106470;1274;138024;-88
2022/06/13 05:15:07;;;;;;;6.50;3.50;;;;;;;18.58;68.57;98234.49;106567;1275;32017;-88
2022/06/13 05:17:37;;;;;;;5.90;3.60;;;;;;;18.66;68.40;98227.98;106386;1277;138657;-88
2022/06/13 05:20:24;;;;;;;7.40;3.50;;;;;;;18.70;68.21;98227.36;106481;1274;23806;-88
2022/06/13 05:23:22;;;;;;;3.90;3.30;;;;;;;18.70;67.80;98232.13;106696;1274;137945;-88
2022/06/13 05:25:59;;;;;;;5.40;4.00;;;;;;;18.71;68.09;98235.38;106623;1274;22545;-88
2022/06/13 05:28:32;;;;;;;5.50;3.80;;;;;;;18.73;68.07;98236.28;106501;1275;137622;-88
2022/06/13 05:31:05;;;;;;;5.40;4.00;;;;;;;18.74;67.82;98236.80;107059;1274;22737;-88
2022/06/13 05:33:41;;;;;;;6.20;3.80;;;;;;;18.76;67.67;98232.52;106626;1277;22629;-88
2022/06/13 05:36:14;;;;;;;5.00;4.00;;;;;;;18.80;67.25;98234.60;106623;1277;137478;-88
2022/06/13 05:39:01;;;;;;;14.30;4.70;;;;;;;18.86;67.00;98232.04;106700;1275;24539;-88
2022/06/13 05:41:29;;;;;;;7.10;4.60;;;;;;;18.89;66.87;98236.11;106647;1276;138655;-89
2022/06/13 05:43:56;;;;;;;6.20;4.60;;;;;;;18.95;66.80;98238.21;106552;1274;24545;-89
2022/06/13 05:46:36;;;;;;;10.90;5.10;;;;;;;19.01;66.57;98239.43;106714;1274;138367;-88
2022/06/13 05:49:07;;;;;;;8.50;4.40;;;;;;;19.10;66.73;98236.26;107155;1274;22600;-88
2022/06/13 05:51:35;;;;;;;8.10;4.40;;;;;;;19.21;66.78;98236.15;106621;1274;22602;-89
2022/06/13 05:54:03;;;;;;;8.10;4.90;;;;;;;19.31;66.90;98235.55;106573;1274;137391;-86
2022/06/13 05:56:33;;;;;;;4.70;4.10;;;;;;;19.44;66.55;98237.05;106773;1277;25299;-87
2022/06/13 05:59:04;;;;;;;6.70;4.50;;;;;;;19.56;65.78;98231.71;106853;1274;137469;-87
2022/06/13 06:01:38;;;;;;;12.70;4.70;;;;;;;19.67;65.72;98236.89;106831;1275;22744;-87
2022/06/13 06:04:06;;;;;;;6.80;4.20;;;;;;;19.76;65.25;98240.69;106581;1274;138264;-87
2022/06/13 06:06:36;;;;;;;10.40;4.40;;;;;;;19.85;65.13;98238.66;106889;1276;22700;-87
2022/06/13 06:09:06;;;;;;;;;;;;;;;19.95;65.25;98238.77;106579;1274;22560;-86
2022/06/13 06:11:36;;;;;;;6.20;4.30;;;;;;;20.01;65.29;98237.42;106720;1274;123866;-87
2022/06/13 06:14:03;;;;;;;8.90;4.60;;;;;;;20.09;65.20;98240.94;106513;1274;22560;-87
2022/06/13 06:16:33;;;;;;;6.00;4.10;;;;;;;20.19;64.75;98241.30;107030;1274;137651;-87
2022/06/13 06:19:02;;;;;;;9.20;4.30;;;;;;;20.23;64.41;98239.55;106542;1275;24287;-87
2022/06/13 06:21:33;;;;;;;7.60;4.60;;;;;;;20.24;63.68;98236.98;107222;1274;23437;-86
2022/06/13 06:24:01;;;;;;;7.80;4.20;;;;;;;20.25;64.24;98233.73;106489;1274;137886;-87
2022/06/13 06:26:29;;;;;;;;;;;;;;;20.30;63.86;98236.30;107257;1274;22594;-87
2022/06/13 06:28:56;;;;;;;8.00;4.10;;;;;;;20.41;63.84;98233.74;107069;1274;123890;-87
2022/06/13 06:31:23;;;;;;;9.50;4.30;;;;;;;20.54;63.28;98226.20;107104;1274;22692;-86
2022/06/13 06:33:50;;;;;;;8.00;3.80;;;;;;;20.65;63.20;98224.38;107096;1274;22713;-87
2022/06/13 06:36:20;;;;;;;11.50;4.40;;;;;;;20.79;62.48;98221.91;107251;1274;137413;-87
2022/06/13 06:38:51;;;;;;;7.60;3.60;;;;;;;20.90;61.85;98221.16;107554;1274;22591;-87
2022/06/13 06:41:19;;;;;;;8.10;3.80;;;;;;;21.00;61.34;98225.06;106627;1274;137624;-87
2022/06/13 06:43:47;;;;;;;8.10;3.80;;;;;;;21.06;61.39;98227.35;106643;1274;24497;-86
2022/06/13 06:46:15;;;;;;;12.60;3.70;;;;;;;21.18;61.28;98224.63;106672;1274;137619;-87
2022/06/13 06:48:42;;;;;;;7.90;3.50;;;;;;;21.30;61.10;98228.98;106702;1274;25263;-86
2022/06/13 06:51:12;;;;;;;8.20;3.80;;;;;;;21.43;60.98;98228.45;106456;1275;24246;-86
2022/06/13 07:02:03;;;;;;;7.10;3.50;;;;;;;21.83;59.00;98228.59;106384;1274;22701;-87
2022/06/13 07:04:30;;;;;;;11.70;4.00;;;;;;;21.94;57.99;98228.58;106742;1274;137579;-87
2022/06/13 07:06:58;;;;;;;8.50;3.30;;;;;;;22.10;57.91;98224.01;106634;1274;30738;-87
2022/06/13 07:09:25;;;;;;;6.40;2.60;;;;;;;22.33;57.04;98216.99;106558;1274;25512;-88
2022/06/13 07:11:55;;;;;;;6.70;2.90;;;;;;;22.51;56.42;98215.75;106363;1274;138386;-87
2022/06/13 07:14:30;;;;;;;6.70;3.00;;;;;;;22.63;55.67;98217.76;106574;1275;23038;-85
2022/06/13 07:17:00;;;;;;;12.90;4.30;;;;;;;22.68;55.48;98214.23;106426;1274;137606;-86
2022/06/13 07:19:30;;;;;;;9.40;3.00;;;;;;;22.68;54.93;98205.97;106221;1277;25514;-87
2022/06/13 07:21:58;;;;;;;5.50;3.00;;;;;;;22.68;54.98;98213.86;106806;1274;22711;-87
2022/06/13 07:24:38;;;;;;;6.90;3.50;;;;;;;22.70;55.06;98237.25;106780;1274;22705;-87
2022/06/13 07:27:06;;;;;;;13.20;3.50;;;;;;;22.66;54.96;98235.67;107297;1274;22575;-87
2022/06/13 07:29:33;;;;;;;10.50;3.70;;;;;;;22.59;55.20;98231.93;107076;1274;137665;-86
2022/06/13 07:32:19;;;;;;;3.80;3.10;;;;;;;22.54;55.24;98227.80;107024;1274;25369;-81
2022/06/13 07:34:52;;;;;;;6.40;2.90;;;;;;;22.50;54.83;98217.38;106852;1274;138036;-85
2022/06/13 07:40:11;;;;;;;5.40;3.30;;;;;;;22.60;55.12;98216.91;106495;1275;137985;-87
2022/06/13 07:42:39;;;;;;;;;;;;;;;22.69;55.19;98209.21;107258;1274;22547;-88
2022/06/13 07:45:11;;;;;;;7.10;3.10;;;;;;;22.79;55.01;98210.58;106804;1275;25554;-85
2022/06/13 07:47:39;;;;;;;7.50;3.50;;;;;;;22.88;55.37;98203.19;106551;1274;137740;-86
2022/06/13 07:50:07;;;;;;;9.00;3.30;;;;;;;23.00;55.14;98200.58;107208;1271;22573;-87
2022/06/13 07:52:34;;;;;;;7.00;3.20;;;;;;;23.10;55.33;98201.26;106949;1274;137635;-86
2022/06/13 07:55:01;;;;;;;7.70;3.80;;;;;;;23.21;55.18;98207.84;107150;1274;25432;-80
2022/06/13 07:57:28;;;;;;;5.30;2.80;;;;;;;23.35;55.21;98202.50;107578;1274;24283;-76
2022/06/13 07:59:55;;;;;;;4.50;3.00;;;;;;;23.45;54.90;98207.05;106922;1274;137559;-80
2022/06/13 08:02:31;;;;;;;5.80;3.40;;;;;;;23.56;54.95;98207.70;106596;1274;22620;-76
2022/06/13 08:04:58;;;;;;;6.50;3.90;;;;;;;23.68;55.27;98208.17;107015;1274;137857;-76
2022/06/13 08:07:26;;;;;;;12.90;3.90;;;;;;;23.83;54.25;98211.14;107289;1275;25451;-78
2022/06/13 08:09:54;;;;;;;4.60;3.50;;;;;;;23.91;50.51;98209.78;106926;1274;23852;-76
2022/06/13 08:12:22;;;;;;;5.40;3.40;;;;;;;24.01;50.51;98210.80;106747;1275;137998;-80
2022/06/13 08:14:50;;;;;;;7.00;3.70;;;;;;;24.16;48.81;98208.89;107011;1276;22549;-87
2022/06/13 08:17:22;;;;;;;4.10;3.70;;;;;;;24.27;47.93;98208.65;106802;1274;137737;-82
2022/06/13 08:19:55;;;;;;;6.80;4.30;;;;;;;24.34;48.08;98209.38;107490;1274;22717;-82
2022/06/13 08:22:23;;;;;;;6.50;3.50;;;;;;;24.41;47.67;98200.10;107278;1274;137575;-87
2022/06/13 08:24:55;;;;;;;5.60;3.90;;;;;;;24.50;47.71;98193.71;106953;1274;22603;-81
2022/06/13 08:27:22;;;;;;;5.70;3.70;;;;;;;24.62;47.96;98195.11;106269;1274;24267;-78
2022/06/13 08:29:49;;;;;;;4.50;4.00;;;;;;;24.71;46.45;98187.95;106344;1274;137573;-81
2022/06/13 08:32:16;;;;;;;6.30;4.20;;;;;;;24.78;46.85;98181.98;106329;1275;23117;-79
2022/06/13 08:34:47;;;;;;;5.80;4.20;;;;;;;24.90;46.56;98185.48;106204;1274;137590;-82
2022/06/13 08:37:23;;;;;;;5.40;4.00;;;;;;;25.10;46.92;98179.78;106578;1274;24071;-76
2022/06/13 08:39:51;;;;;;;4.60;3.60;;;;;;;25.35;46.53;98180.59;106449;1274;22560;-80
2022/06/13 08:42:38;;;;;;;5.20;3.60;;;;;;;25.59;45.34;98179.82;106743;1274;137537;-77
2022/06/13 08:45:23;;;;;;;5.50;3.50;;;;;;;25.81;44.69;98174.41;106410;1274;25316;-80
2022/06/13 08:48:09;;;;;;;3.70;3.40;;;;;;;26.00;44.14;98174.42;106248;1273;137537;-81
2022/06/13 08:50:40;;;;;;;5.20;3.50;;;;;;;26.17;44.13;98178.13;106500;1274;23613;-79
2022/06/13 08:53:21;;;;;;;7.40;3.80;;;;;;;26.42;44.21;98177.61;106451;1274;138177;-80
2022/06/13 08:55:54;;;;;;;7.40;3.20;;;;;;;26.71;43.25;98178.95;106458;1274;25431;-79
2022/06/13 08:58:55;;;;;;;5.10;3.40;;;;;;;26.78;42.36;98175.54;106067;1274;137677;-83
2022/06/13 09:01:32;;;;;;;5.50;3.20;;;;;;;26.68;42.38;98182.09;106407;1274;25369;-85
2022/06/13 09:04:19;;;;;;;5.00;2.90;;;;;;;26.53;41.12;98198.02;106079;1274;137658;-85
2022/06/13 09:06:53;;;;;;;5.50;2.70;;;;;;;25.97;40.96;98201.13;106457;1274;23393;-84
2022/06/13 09:09:29;;;;;;;9.60;3.00;;;;;;;25.32;42.39;98204.95;106302;1274;30316;-83
2022/06/13 09:12:17;;;;;;;4.30;2.60;;;;;;;24.84;43.93;98205.64;106715;1274;137450;-83
2022/06/13 09:15:01;;;;;;;5.40;2.90;;;;;;;24.49;44.92;98197.05;106617;1274;22557;-86
2022/06/13 09:17:59;;;;;;;7.50;3.00;;;;;;;24.27;45.93;98202.95;106156;1274;138200;-83
2022/06/13 09:20:36;;;;;;;5.00;3.40;;;;;;;24.38;46.98;98197.92;106560;1274;22745;-84
2022/06/13 09:23:15;;;;;;;5.40;3.40;;;;;;;24.64;46.54;98197.26;106217;1274;139865;-83
2022/06/13 09:26:03;;;;;;;5.70;3.30;;;;;;;24.89;46.04;98190.80;106350;1274;22548;-83
2022/06/13 09:28:41;;;;;;;8.20;3.90;;;;;;;25.11;46.17;98183.81;106182;1276;137961;-84
2022/06/13 09:31:23;;;;;;;6.50;4.20;;;;;;;25.24;46.18;98194.33;106095;1276;25264;-84
2022/06/13 09:34:25;;;;;;;4.50;4.00;;;;;;;25.36;47.22;98188.74;106306;1274;22564;-83
2022/06/13 09:37:14;;;;;;;5.40;4.10;;;;;;;25.50;47.33;98195.09;106170;1275;22552;-81
2022/06/13 09:39:41;;;;;;;5.80;4.40;;;;;;;25.64;47.19;98196.80;106276;1274;24058;-83
2022/06/13 09:42:32;;;;;;;6.20;4.40;;;;;;;25.61;47.30;98195.98;106239;1277;138078;-83
2022/06/13 09:45:17;;;;;;;6.60;4.30;;;;;;;25.36;47.68;98193.83;106280;1275;25448;-81
2022/06/13 09:48:03;;;;;;;8.40;4.50;;;;;;;25.08;48.07;98192.52;106311;1274;137535;-84
2022/06/13 09:50:58;;;;;;;7.50;4.50;;;;;;;24.70;49.64;98192.13;106648;1274;32031;-83
2022/06/13 09:53:52;;;;;;;10.50;4.90;;;;;;;24.35;50.54;98195.96;106347;1274;137600;-83
2022/06/13 09:56:31;;;;;;;6.90;4.90;;;;;;;24.12;50.88;98191.81;106509;1274;22557;-82
2022/06/13 09:59:26;;;;;;;3.90;3.60;;;;;;;24.01;50.75;98189.59;106377;1274;137926;-79
2022/06/13 10:02:34;;;;;;;9.40;3.40;;;;;;;23.93;50.72;98195.17;106527;1274;22804;-85
2022/06/13 10:05:34;;;;;;;2.90;2.10;;;;;;;23.80;48.84;98194.96;106201;1274;137413;-82
2022/06/13 10:08:26;;;;;;;3.20;2.10;;;;;;;23.61;47.51;98195.83;106317;1274;22550;-81
2022/06/13 10:11:07;;;;;;;2.70;2.10;;;;;;;23.40;48.48;98201.92;106353;1275;137537;-80
2022/06/13 10:13:52;;;;;;;3.00;2.10;;;;;;;23.24;48.46;98200.31;106058;1277;22664;-80
2022/06/13 10:16:32;;;;;;;2.60;1.80;;;;;;;23.09;49.49;98203.63;106466;1276;137574;-81
2022/06/13 10:19:18;;;;;;;1.80;1.70;;;;;;;23.04;48.86;98205.81;106325;1274;22547;-82
2022/06/13 10:21:48;;;;;;;4.60;2.10;;;;;;;23.02;49.31;98202.73;106508;1274;24255;-81
2022/06/13 10:24:44;;;;;;;3.50;2.20;;;;;;;22.95;49.67;98209.27;106239;1277;138061;-82
2022/06/13 10:27:30;;;;;;;4.50;2.00;;;;;;;22.88;49.99;98213.96;106976;1274;22538;-81
2022/06/13 10:30:14;;;;;;;1.90;1.80;;;;;;;22.80;49.94;98216.88;106775;1274;137633;-80
2022/06/13 10:33:05;;;;;;;1.70;1.50;;;;;;;22.71;50.20;98214.13;106222;1275;24291;-81
2022/06/13 10:35:43;;;;;;;4.10;1.40;;;;;;;22.64;49.91;98210.52;106177;1274;138116;-81
2022/06/13 10:38:39;;;;;;;3.20;1.60;;;;;;;22.64;50.06;98210.83;106927;1274;24685;-81
2022/06/13 10:41:07;;;;;;;1.60;1.50;;;;;;;22.70;50.50;98209.98;106743;1273;137498;-82
2022/06/13 10:43:37;;;;;;;4.20;1.80;;;;;;;22.81;50.71;98207.41;106326;1274;22721;-81
2022/06/13 10:46:07;;;;;;;2.80;2.10;;;;;;;22.97;50.65;98204.17;106035;1277;139960;-82
2022/06/13 10:48:55;;;;;;;3.00;1.70;;;;;;;23.08;50.39;98198.06;106331;1273;22546;-80
2022/06/13 10:51:22;;;;;;;2.70;2.30;;;;;;;23.21;50.54;98201.18;106718;1274;25258;-81
2022/06/13 10:54:10;;;;;;;5.80;2.50;;;;;;;23.22;50.63;98200.49;106965;1274;138178;-80
2022/06/13 10:57:05;;;;;;;4.00;2.40;;;;;;;23.24;50.50;98196.10;106414;1277;25389;-80
2022/06/13 10:59:35;;;;;;;2.40;2.20;;;;;;;23.28;51.14;98185.64;106160;1277;137571;-80
2022/06/13 11:02:04;;;;;;;2.30;1.90;;;;;;;23.47;50.16;98178.91;106321;1277;22651;-80
2022/06/13 11:04:34;;;;;;;2.50;2.00;;;;;;;23.71;49.79;98190.58;106640;1274;137747;-81
2022/06/13 11:07:19;;;;;;;2.80;1.70;;;;;;;23.84;48.60;98187.34;106622;1274;22554;-81
2022/06/13 11:09:57;;;;;;;2.30;1.90;;;;;;;23.91;48.29;98190.87;106377;1274;22623;-81
2022/06/13 11:12:31;;;;;;;6.60;1.90;;;;;;;23.84;49.00;98199.91;106515;1274;30554;-80
2022/06/13 11:24:21;;;;;;;4.00;2.20;;;;;;;23.01;50.24;98173.58;106527;1274;137987;-80
2022/06/13 11:29:37;;;;;;;2.70;2.50;;;;;;;23.11;51.54;98162.13;106503;1274;137560;-81
2022/06/13 11:32:22;;;;;;;3.70;2.00;;;;;;;23.24;51.73;98163.59;106442;1274;24421;-81
2022/06/13 11:34:49;;;;;;;4.60;2.20;;;;;;;23.30;50.95;98166.19;106753;1274;137865;-80
2022/06/13 11:37:21;;;;;;;3.20;2.40;;;;;;;23.34;50.79;98160.92;106420;1274;23523;-81
2022/06/13 11:39:51;;;;;;;3.50;2.50;;;;;;;23.41;50.74;98154.14;106556;1274;25322;-80
2022/06/13 11:42:27;;;;;;;4.10;2.20;;;;;;;23.57;50.78;98158.20;106548;1274;137705;-81
2022/06/13 11:45:02;;;;;;;3.20;2.60;;;;;;;23.70;49.79;98157.56;107046;1274;24313;-80
2022/06/13 11:47:47;;;;;;;5.90;2.20;;;;;;;23.78;49.29;98149.91;106627;1274;137875;-81
2022/06/13 11:50:24;;;;;;;4.70;1.90;;;;;;;23.89;49.40;98153.55;107304;1274;22681;-81
2022/06/13 11:55:54;;;;;;;5.20;1.90;;;;;;;24.17;47.97;98172.04;106479;1273;23437;-82
2022/06/13 11:58:27;;;;;;;4.20;1.80;;;;;;;24.22;47.70;98176.84;106559;1273;138064;-81
2022/06/13 12:01:03;;;;;;;5.10;1.40;;;;;;;24.20;47.57;98181.21;106503;1275;22568;-81
2022/06/13 12:03:30;;;;;;;2.10;1.50;;;;;;;24.11;47.56;98183.27;106320;1274;30748;-81
2022/06/13 12:06:18;;;;;;;5.20;1.80;;;;;;;23.96;47.44;98183.52;106431;1274;139452;-81
2022/06/13 12:08:58;;;;;;;9.10;1.60;;;;;;;23.86;48.07;98181.41;106554;1274;24465;-80
2022/06/13 12:11:26;;;;;;;7.10;1.40;;;;;;;23.74;48.44;98184.43;106396;1276;138284;-81
2022/06/13 12:13:58;;;;;;;7.00;1.70;;;;;;;23.59;48.43;98186.59;106524;1274;22550;-81
2022/06/13 12:17:05;;;;;;;12.50;1.80;;;;;;;23.40;48.70;98179.98;106756;1274;137651;-82
2022/06/13 12:19:51;;;;;;;4.10;1.60;;;;;;;23.23;49.09;98176.14;106831;1277;22749;-82
2022/06/13 12:22:38;;;;;;;5.60;2.20;;;;;;;23.03;49.33;98177.54;107414;1274;137567;-82
2022/06/13 12:25:13;;;;;;;2.00;1.60;;;;;;;22.88;50.01;98177.71;106901;1275;22544;-81
2022/06/13 12:27:57;;;;;;;3.50;1.60;;;;;;;22.81;50.56;98174.34;106777;1277;22572;-81
2022/06/13 12:30:43;;;;;;;2.60;2.10;;;;;;;22.71;50.75;98172.82;106939;1277;25381;-81
2022/06/13 12:33:10;;;;;;;4.80;1.50;;;;;;;22.60;51.01;98164.73;106405;1274;25397;-82
2022/06/13 12:36:22;;;;;;;2.50;1.90;;;;;;;22.53;51.34;98163.34;106376;1274;137729;-81
2022/06/13 12:38:55;;;;;;;4.50;1.80;;;;;;;22.44;51.64;98160.28;105992;1274;24418;-81